Time;durP1;ratioP1;P1;durP2;ratioP2;P2;SDS_P1;SDS_P2;PMS_P1;PMS_P2;Temp;Humidity;BMP_temperature;BMP_pressure;BME280_temperature;BME280_humidity;BME280_pressure;Samples;Min_cycle;Max_cycle;Signal;HPM_P1;HPM_P2
2023/12/16 00:02:08;;;;;;;54.70;45.23;;;6.80;99.90;;;;;;5034672;28;20037;-69
2023/12/16 00:04:34;;;;;;;50.40;45.17;;;6.70;99.90;;;;;;5022040;28;20360;-69
2023/12/16 00:07:00;;;;;;;51.13;45.97;;;6.80;99.90;;;;;;5031201;28;20042;-69
2023/12/16 00:09:26;;;;;;;44.03;39.53;;;6.70;99.90;;;;;;5035741;28;20036;-69
2023/12/16 00:11:52;;;;;;;47.77;42.67;;;6.70;99.90;;;;;;5034302;28;20044;-69
2023/12/16 00:14:18;;;;;;;50.23;44.27;;;6.70;99.90;;;;;;5035076;28;20060;-69
2023/12/16 00:16:45;;;;;;;46.87;40.87;;;6.70;99.90;;;;;;5032918;28;20501;-69
2023/12/16 00:19:11;;;;;;;51.47;43.90;;;6.70;99.90;;;;;;5018326;28;20506;-69
2023/12/16 00:21:37;;;;;;;48.33;43.00;;;6.70;99.90;;;;;;5023503;28;20036;-69
2023/12/16 00:24:08;;;;;;;54.93;45.33;;;6.70;99.90;;;;;;5015463;28;20486;-69
2023/12/16 00:26:35;;;;;;;61.20;48.43;;;6.70;99.90;;;;;;5032418;28;20029;-69
2023/12/16 00:29:01;;;;;;;48.60;43.00;;;6.60;99.90;;;;;;5033612;28;20466;-69
2023/12/16 00:31:28;;;;;;;51.17;45.73;;;6.60;99.90;;;;;;5034129;28;20061;-69
2023/12/16 00:33:54;;;;;;;51.50;45.20;;;6.60;99.90;;;;;;5030005;28;20053;-69
2023/12/16 00:36:20;;;;;;;45.80;41.00;;;6.60;99.90;;;;;;5024314;28;20488;-69
2023/12/16 00:38:46;;;;;;;53.57;47.10;;;6.60;99.90;;;;;;5035306;28;20034;-69
2023/12/16 00:41:12;;;;;;;49.93;44.53;;;6.60;99.90;;;;;;5034596;28;20033;-69
2023/12/16 00:43:38;;;;;;;47.43;42.03;;;6.50;99.90;;;;;;5034859;28;20030;-69
2023/12/16 00:46:04;;;;;;;51.17;42.43;;;6.50;99.90;;;;;;5034124;28;20406;-69
2023/12/16 00:48:30;;;;;;;48.83;40.73;;;6.50;99.90;;;;;;5033586;28;20046;-69
2023/12/16 00:50:56;;;;;;;49.77;43.23;;;6.40;99.90;;;;;;5034041;28;20425;-76
2023/12/16 00:53:22;;;;;;;52.93;47.43;;;6.40;99.90;;;;;;5033203;28;20049;-76
2023/12/16 00:55:48;;;;;;;51.67;45.97;;;6.50;99.90;;;;;;5034257;28;20389;-76
2023/12/16 00:58:14;;;;;;;50.40;45.40;;;6.40;99.90;;;;;;5034626;28;20033;-76
2023/12/16 01:00:42;;;;;;;60.57;54.57;;;6.40;99.90;;;;;;5029818;28;20498;-77
2023/12/16 01:03:08;;;;;;;43.20;38.30;;;6.40;99.90;;;;;;5014541;28;20033;-76
2023/12/16 01:05:37;;;;;;;48.37;40.97;;;6.30;99.90;;;;;;5014318;28;20033;-77
2023/12/16 01:08:04;;;;;;;47.07;42.13;;;6.40;99.90;;;;;;5013588;28;20471;-77
2023/12/16 01:10:30;;;;;;;46.20;37.53;;;6.40;99.90;;;;;;5017391;28;20387;-76
2023/12/16 01:12:56;;;;;;;52.23;46.87;;;6.40;99.90;;;;;;5014655;28;20037;-74
2023/12/16 01:15:22;;;;;;;51.50;42.97;;;6.30;99.90;;;;;;5015285;28;20018;-74
2023/12/16 01:18:25;;;;;;;44.97;39.50;;;6.30;99.90;;;;;;5438711;22;22970;-65
2023/12/16 01:20:51;;;;;;;40.47;36.20;;;6.30;99.90;;;;;;5008205;28;20363;-70
2023/12/16 01:23:17;;;;;;;40.27;36.13;;;6.30;99.90;;;;;;5009394;28;20033;-69
2023/12/16 01:25:43;;;;;;;47.30;38.20;;;6.20;99.90;;;;;;4999326;28;20030;-70
2023/12/16 01:28:10;;;;;;;46.23;41.17;;;6.20;99.90;;;;;;5002125;28;20038;-70
2023/12/16 01:30:36;;;;;;;46.00;38.83;;;6.30;99.90;;;;;;5010131;28;20035;-70
2023/12/16 01:33:02;;;;;;;67.63;61.33;;;6.20;99.90;;;;;;4994009;28;20034;-69
2023/12/16 01:35:28;;;;;;;79.90;73.03;;;6.20;99.90;;;;;;5001207;28;20056;-70
2023/12/16 01:37:54;;;;;;;78.50;71.27;;;6.20;99.90;;;;;;5013971;28;20067;-70
2023/12/16 01:40:20;;;;;;;53.60;48.17;;;6.20;99.90;;;;;;5011837;28;20056;-69
2023/12/16 01:42:46;;;;;;;73.03;66.07;;;6.20;99.90;;;;;;4994330;28;20034;-70
2023/12/16 01:45:15;;;;;;;67.20;60.47;;;6.20;99.90;;;;;;4993568;28;20494;-70
2023/12/16 01:47:41;;;;;;;51.80;46.40;;;6.30;99.90;;;;;;4994164;28;20061;-70
2023/12/16 01:50:07;;;;;;;45.03;40.07;;;6.20;99.90;;;;;;4992795;28;20038;-70
2023/12/16 01:52:34;;;;;;;48.37;40.00;;;6.10;99.90;;;;;;4999904;28;20038;-70
2023/12/16 01:55:00;;;;;;;51.27;43.53;;;6.10;99.90;;;;;;4994262;28;20041;-70
2023/12/16 01:57:26;;;;;;;47.00;38.23;;;6.10;99.90;;;;;;4994172;28;20046;-70
2023/12/16 01:59:52;;;;;;;44.10;36.93;;;6.10;99.90;;;;;;4994031;28;20041;-70
2023/12/16 02:02:18;;;;;;;64.50;59.10;;;6.10;99.90;;;;;;4992860;28;20039;-70
2023/12/16 02:04:44;;;;;;;58.70;53.20;;;6.10;99.90;;;;;;4976315;28;20707;-69
2023/12/16 02:07:11;;;;;;;50.97;45.60;;;6.10;99.90;;;;;;4993704;28;20042;-69
2023/12/16 02:09:37;;;;;;;44.77;40.17;;;6.10;99.90;;;;;;4993896;28;20147;-70
2023/12/16 02:12:03;;;;;;;40.83;36.73;;;6.10;99.90;;;;;;4992297;28;20045;-69
2023/12/16 02:14:29;;;;;;;45.30;40.77;;;6.00;99.90;;;;;;4993699;28;20041;-70
2023/12/16 02:16:55;;;;;;;50.47;45.40;;;6.00;99.90;;;;;;4994861;28;20046;-69
2023/12/16 02:19:24;;;;;;;47.63;42.67;;;6.00;99.90;;;;;;5032693;28;20052;-70
2023/12/16 02:21:51;;;;;;;51.63;46.33;;;6.00;99.90;;;;;;5037903;28;20045;-70
2023/12/16 02:24:17;;;;;;;48.20;42.90;;;6.00;99.90;;;;;;5045393;28;20060;-70
2023/12/16 02:26:43;;;;;;;51.53;46.53;;;5.90;99.90;;;;;;5042892;28;20045;-70
2023/12/16 02:29:09;;;;;;;46.67;42.03;;;5.90;99.90;;;;;;5047271;28;20044;-70
2023/12/16 02:31:35;;;;;;;43.53;39.17;;;5.90;99.90;;;;;;5040989;28;20500;-70
2023/12/16 02:34:01;;;;;;;50.27;45.17;;;5.90;99.90;;;;;;5052876;28;20028;-69
2023/12/16 02:36:27;;;;;;;46.60;41.60;;;5.90;99.90;;;;;;5041491;28;20052;-70
2023/12/16 02:38:53;;;;;;;48.30;43.10;;;5.90;99.90;;;;;;5036313;28;20040;-69
2023/12/16 02:41:21;;;;;;;41.73;37.87;;;5.80;99.90;;;;;;5032461;28;20048;-69
2023/12/16 02:43:47;;;;;;;48.30;43.47;;;5.80;99.90;;;;;;5050679;28;20041;-70
2023/12/16 02:46:13;;;;;;;45.37;40.33;;;5.80;99.90;;;;;;5031600;28;20033;-70
2023/12/16 02:48:39;;;;;;;42.97;38.43;;;5.80;99.90;;;;;;5032769;28;20045;-70
2023/12/16 02:51:05;;;;;;;49.07;41.63;;;5.80;99.90;;;;;;5031903;28;20029;-69
2023/12/16 02:53:31;;;;;;;51.97;46.43;;;5.80;99.90;;;;;;5034930;28;20101;-70
2023/12/16 02:55:57;;;;;;;44.77;39.53;;;5.70;99.90;;;;;;5045528;28;20026;-69
2023/12/16 02:58:23;;;;;;;49.57;44.30;;;5.60;99.90;;;;;;5032891;28;20037;-70
2023/12/16 03:00:50;;;;;;;46.13;41.57;;;5.70;99.90;;;;;;5034176;28;20037;-69
2023/12/16 03:03:16;;;;;;;48.47;43.50;;;5.70;99.90;;;;;;5035085;28;20056;-69
2023/12/16 03:05:42;;;;;;;41.53;37.07;;;5.70;99.90;;;;;;5032162;28;20029;-69
2023/12/16 03:08:08;;;;;;;45.70;40.87;;;5.60;99.90;;;;;;5032292;28;20049;-70
2023/12/16 03:10:34;;;;;;;43.13;38.47;;;5.60;99.90;;;;;;5032076;28;20038;-70
2023/12/16 03:13:00;;;;;;;42.67;37.93;;;5.60;99.90;;;;;;5032110;28;20032;-69
2023/12/16 03:15:26;;;;;;;49.43;38.80;;;5.60;99.90;;;;;;5031101;28;20129;-70
2023/12/16 03:17:52;;;;;;;42.77;37.77;;;5.60;99.90;;;;;;5032123;28;20062;-69
2023/12/16 03:20:18;;;;;;;48.90;41.17;;;5.60;99.90;;;;;;5032095;28;20049;-70
2023/12/16 03:22:44;;;;;;;48.70;41.57;;;5.60;99.90;;;;;;5031923;28;20026;-69
2023/12/16 03:25:10;;;;;;;42.70;38.23;;;5.60;99.90;;;;;;5031800;28;20036;-69
2023/12/16 03:27:37;;;;;;;40.53;36.23;;;5.50;99.90;;;;;;5040194;28;20033;-70
2023/12/16 03:30:03;;;;;;;42.23;37.43;;;5.60;99.90;;;;;;5050689;28;20040;-68
2023/12/16 03:32:29;;;;;;;37.10;31.73;;;5.50;99.90;;;;;;5044039;28;20388;-69
2023/12/16 03:34:55;;;;;;;39.03;34.13;;;5.50;99.90;;;;;;5045566;28;20096;-69
2023/12/16 03:37:21;;;;;;;40.87;34.67;;;5.50;99.90;;;;;;5052687;28;20400;-69
2023/12/16 03:39:48;;;;;;;36.07;32.17;;;5.50;99.90;;;;;;5044435;28;20032;-69
2023/12/16 03:42:14;;;;;;;37.17;33.23;;;5.40;99.90;;;;;;5050852;28;20369;-70
2023/12/16 03:44:41;;;;;;;38.43;34.27;;;5.50;99.90;;;;;;5038937;28;20025;-69
2023/12/16 03:47:07;;;;;;;42.57;38.00;;;5.40;99.90;;;;;;5038524;28;20045;-69
2023/12/16 03:49:34;;;;;;;40.03;36.07;;;5.40;99.90;;;;;;5050206;28;20041;-69
2023/12/16 03:52:00;;;;;;;41.87;37.47;;;5.40;99.90;;;;;;5035003;28;20042;-70
2023/12/16 03:54:26;;;;;;;37.77;34.07;;;5.40;99.90;;;;;;5035819;28;20033;-69
2023/12/16 03:56:52;;;;;;;37.60;33.47;;;5.40;99.90;;;;;;5035627;28;20382;-69
2023/12/16 03:59:19;;;;;;;36.57;32.87;;;5.40;99.90;;;;;;5038041;28;20029;-70
2023/12/16 04:01:45;;;;;;;40.10;35.80;;;5.30;99.90;;;;;;5048144;28;20038;-70
2023/12/16 04:04:11;;;;;;;39.80;35.73;;;5.30;99.90;;;;;;5035449;28;20033;-70
2023/12/16 04:06:37;;;;;;;37.77;33.73;;;5.30;99.90;;;;;;5035352;28;20025;-70
2023/12/16 04:09:03;;;;;;;39.93;34.87;;;5.20;99.90;;;;;;5035411;28;20401;-70
2023/12/16 04:11:29;;;;;;;44.07;40.23;;;5.30;99.90;;;;;;5039314;28;20041;-70
2023/12/16 04:13:55;;;;;;;40.53;36.70;;;5.20;99.90;;;;;;5039103;28;20045;-70
2023/12/16 04:16:21;;;;;;;43.10;35.03;;;5.20;99.90;;;;;;5052206;28;20029;-69
2023/12/16 04:18:48;;;;;;;40.20;36.07;;;5.20;99.90;;;;;;5055080;28;20492;-70
2023/12/16 04:21:14;;;;;;;44.90;40.23;;;5.20;99.90;;;;;;5045099;28;20025;-70
2023/12/16 04:23:40;;;;;;;39.70;35.70;;;5.20;99.90;;;;;;5054770;28;20037;-70
2023/12/16 04:26:06;;;;;;;42.30;37.87;;;5.10;99.90;;;;;;5049893;28;20044;-69
2023/12/16 04:28:32;;;;;;;41.27;37.50;;;5.10;99.90;;;;;;5054450;28;20052;-69
2023/12/16 04:30:58;;;;;;;39.87;35.80;;;5.10;99.90;;;;;;5053832;28;20032;-70
2023/12/16 04:33:24;;;;;;;41.33;36.77;;;5.10;99.90;;;;;;5055085;28;20081;-70
2023/12/16 04:35:50;;;;;;;42.07;37.77;;;5.10;99.90;;;;;;5054554;28;20025;-70
2023/12/16 04:38:17;;;;;;;94.03;47.67;;;5.10;99.90;;;;;;5053782;28;20021;-69
2023/12/16 04:40:43;;;;;;;81.47;46.57;;;5.10;99.90;;;;;;5053318;28;20037;-70
2023/12/16 04:43:09;;;;;;;80.70;56.50;;;5.00;99.90;;;;;;5053843;28;20025;-69
2023/12/16 04:45:35;;;;;;;138.20;75.83;;;5.00;99.90;;;;;;5053138;28;20397;-70
2023/12/16 04:48:01;;;;;;;244.30;98.67;;;5.10;99.90;;;;;;5035529;28;20509;-70
2023/12/16 04:50:27;;;;;;;123.77;90.57;;;5.00;99.90;;;;;;5050998;28;20040;-69
2023/12/16 04:52:53;;;;;;;95.60;87.33;;;5.00;99.90;;;;;;5038947;28;20390;-69
2023/12/16 04:55:20;;;;;;;77.30;70.30;;;5.00;99.90;;;;;;5046242;28;20033;-69
2023/12/16 04:57:46;;;;;;;77.77;71.07;;;5.00;99.90;;;;;;5034693;28;20389;-70
2023/12/16 05:00:13;;;;;;;85.07;76.67;;;5.00;99.90;;;;;;5037484;28;20021;-70
2023/12/16 05:02:39;;;;;;;64.93;59.30;;;4.90;99.90;;;;;;5051964;28;20044;-70
2023/12/16 05:05:05;;;;;;;54.77;49.00;;;4.90;99.90;;;;;;5053447;28;20489;-70
2023/12/16 05:07:33;;;;;;;42.00;35.37;;;4.90;99.90;;;;;;5053971;28;20029;-69
2023/12/16 05:09:59;;;;;;;37.67;31.70;;;4.90;99.90;;;;;;5050919;28;20057;-69
2023/12/16 05:12:25;;;;;;;44.60;37.80;;;4.90;99.90;;;;;;5037078;28;20356;-69
2023/12/16 05:14:51;;;;;;;43.80;39.33;;;4.80;99.90;;;;;;5054185;28;20029;-69
2023/12/16 05:17:17;;;;;;;45.33;35.67;;;4.80;99.90;;;;;;5052747;28;20384;-69
2023/12/16 05:19:43;;;;;;;79.17;51.43;;;4.80;99.90;;;;;;5053155;28;20045;-70
2023/12/16 05:22:09;;;;;;;51.03;45.53;;;4.80;99.90;;;;;;5051932;28;20028;-70
2023/12/16 05:24:35;;;;;;;61.60;55.37;;;4.80;99.90;;;;;;5052505;28;20028;-69
2023/12/16 05:27:01;;;;;;;45.33;40.53;;;4.80;99.90;;;;;;5043768;28;20469;-69
2023/12/16 05:29:27;;;;;;;46.03;37.50;;;4.80;99.90;;;;;;5053700;28;20036;-69
2023/12/16 05:31:53;;;;;;;54.83;37.47;;;4.80;99.90;;;;;;5052290;28;20512;-70
2023/12/16 05:34:19;;;;;;;43.60;36.80;;;4.80;99.90;;;;;;5053654;28;20021;-69
2023/12/16 05:36:47;;;;;;;38.10;33.37;;;4.80;99.90;;;;;;5052781;28;20041;-70
2023/12/16 05:39:13;;;;;;;43.23;34.80;;;4.70;99.90;;;;;;5033987;28;20048;-69
2023/12/16 05:41:39;;;;;;;44.67;38.00;;;4.70;99.90;;;;;;5041010;28;20041;-69
2023/12/16 05:44:05;;;;;;;50.33;44.57;;;4.70;99.90;;;;;;5033591;28;20029;-72
2023/12/16 05:46:31;;;;;;;41.70;37.30;;;4.60;99.90;;;;;;5032900;28;20494;-70
2023/12/16 05:48:57;;;;;;;36.53;32.60;;;4.60;99.90;;;;;;5046019;28;20037;-69
2023/12/16 05:51:23;;;;;;;39.53;35.43;;;4.70;99.90;;;;;;5046366;28;20378;-69
2023/12/16 05:53:49;;;;;;;47.73;39.90;;;4.70;99.90;;;;;;5033136;28;20037;-69
2023/12/16 05:56:16;;;;;;;46.40;34.33;;;4.70;99.90;;;;;;5032583;28;20033;-69
2023/12/16 05:58:42;;;;;;;153.37;49.40;;;4.60;99.90;;;;;;5033201;28;20033;-70
2023/12/16 06:01:09;;;;;;;355.53;77.37;;;4.60;99.90;;;;;;5036288;28;20041;-69
2023/12/16 06:03:35;;;;;;;65.80;37.40;;;4.60;99.90;;;;;;5033332;28;20029;-70
2023/12/16 06:06:01;;;;;;;221.67;59.97;;;4.60;99.90;;;;;;5050589;28;20036;-70
2023/12/16 06:08:27;;;;;;;103.80;43.80;;;4.60;99.90;;;;;;5052546;28;20033;-70
2023/12/16 06:10:53;;;;;;;247.43;61.27;;;4.60;99.90;;;;;;5046686;28;20458;-70
2023/12/16 06:13:19;;;;;;;148.03;50.77;;;4.60;99.90;;;;;;5033186;28;20030;-68
2023/12/16 06:15:45;;;;;;;101.73;51.87;;;4.50;99.90;;;;;;5040246;28;20056;-70
2023/12/16 06:18:11;;;;;;;178.67;62.77;;;4.60;99.90;;;;;;5033081;28;20030;-69
2023/12/16 06:20:37;;;;;;;69.80;38.73;;;4.60;99.90;;;;;;5034360;28;20402;-69
2023/12/16 06:23:03;;;;;;;111.00;44.33;;;4.50;99.90;;;;;;5052238;28;20041;-70
2023/12/16 06:25:29;;;;;;;79.33;42.30;;;4.50;99.90;;;;;;5049900;28;20088;-70
2023/12/16 06:27:55;;;;;;;180.37;61.23;;;4.50;99.90;;;;;;5050485;28;20041;-70
2023/12/16 06:30:21;;;;;;;182.60;59.20;;;4.50;99.90;;;;;;5051577;28;20057;-70
2023/12/16 06:32:48;;;;;;;248.33;100.83;;;4.50;99.90;;;;;;5053055;28;20040;-70
2023/12/16 06:35:14;;;;;;;131.20;81.17;;;4.50;99.90;;;;;;5051968;28;20385;-70
2023/12/16 06:37:40;;;;;;;350.50;98.13;;;4.50;99.90;;;;;;5032387;28;20045;-70
2023/12/16 06:40:07;;;;;;;200.13;81.70;;;4.50;99.90;;;;;;5032728;28;20028;-70
2023/12/16 06:42:33;;;;;;;237.07;91.00;;;4.40;99.90;;;;;;5032108;28;20060;-70
2023/12/16 06:44:59;;;;;;;121.23;77.17;;;4.40;99.90;;;;;;5032739;28;20025;-69
2023/12/16 06:47:25;;;;;;;77.93;56.67;;;4.40;99.90;;;;;;5032032;28;20041;-70
2023/12/16 06:49:53;;;;;;;73.80;51.90;;;4.40;99.90;;;;;;5032562;28;20045;-70
2023/12/16 06:52:19;;;;;;;69.50;47.43;;;4.40;99.90;;;;;;5035882;28;20033;-69
2023/12/16 06:54:45;;;;;;;53.83;41.57;;;4.40;99.90;;;;;;5052246;28;20063;-70
2023/12/16 06:57:11;;;;;;;68.20;41.40;;;4.40;99.90;;;;;;5051825;28;20028;-70
2023/12/16 06:59:37;;;;;;;52.63;36.33;;;4.40;99.90;;;;;;5052453;28;20041;-70
2023/12/16 07:02:03;;;;;;;46.47;39.47;;;4.40;99.90;;;;;;5049650;28;20044;-70
2023/12/16 07:04:29;;;;;;;53.70;42.60;;;4.40;99.90;;;;;;5032600;28;20045;-70
2023/12/16 07:06:55;;;;;;;49.83;42.30;;;4.40;99.90;;;;;;5031239;28;20041;-70
2023/12/16 07:09:21;;;;;;;77.97;45.70;;;4.30;99.90;;;;;;5031706;28;20052;-68
2023/12/16 07:11:47;;;;;;;150.20;85.60;;;4.30;99.90;;;;;;5034573;28;20363;-70
2023/12/16 07:14:13;;;;;;;185.90;93.37;;;4.40;99.90;;;;;;5033167;28;20040;-70
2023/12/16 07:16:40;;;;;;;141.07;73.53;;;4.40;99.90;;;;;;5044558;28;20485;-69
2023/12/16 07:19:06;;;;;;;142.77;76.00;;;4.30;99.90;;;;;;5032110;28;20041;-69
2023/12/16 07:21:32;;;;;;;113.03;66.23;;;4.30;99.90;;;;;;5040356;28;20048;-70
2023/12/16 07:23:58;;;;;;;105.00;64.40;;;4.30;99.90;;;;;;5051321;28;20033;-70
2023/12/16 07:26:24;;;;;;;103.57;62.83;;;4.30;99.90;;;;;;5046288;28;20038;-69
2023/12/16 07:28:50;;;;;;;129.07;75.17;;;4.30;99.90;;;;;;5032134;28;20053;-70
2023/12/16 07:31:16;;;;;;;109.77;73.40;;;4.30;99.90;;;;;;5031612;28;20030;-69
2023/12/16 07:33:42;;;;;;;118.93;79.07;;;4.30;99.90;;;;;;5043566;28;20041;-69
2023/12/16 07:36:09;;;;;;;102.00;66.40;;;4.30;99.90;;;;;;5051257;28;20029;-69
2023/12/16 07:38:35;;;;;;;94.40;62.13;;;4.20;99.90;;;;;;5051561;28;20037;-70
2023/12/16 07:41:01;;;;;;;99.10;66.53;;;4.20;99.90;;;;;;5051851;28;20468;-70
2023/12/16 07:43:27;;;;;;;89.90;70.23;;;4.20;99.90;;;;;;5042584;28;20026;-70
2023/12/16 07:45:53;;;;;;;84.03;69.77;;;4.10;99.90;;;;;;5031453;28;20397;-70
2023/12/16 07:48:19;;;;;;;82.00;58.93;;;4.20;99.90;;;;;;5043532;28;20047;-69
2023/12/16 07:50:45;;;;;;;100.77;77.17;;;4.10;99.90;;;;;;5048015;28;20759;-70
2023/12/16 07:53:11;;;;;;;70.60;54.37;;;4.00;99.90;;;;;;5048275;28;20029;-70
2023/12/16 07:55:38;;;;;;;61.80;51.40;;;4.10;99.90;;;;;;5051754;28;20056;-70
2023/12/16 07:58:04;;;;;;;64.50;51.23;;;4.10;99.90;;;;;;5051795;28;20032;-70
2023/12/16 08:00:30;;;;;;;58.57;47.37;;;4.10;99.90;;;;;;5047731;28;20418;-69
2023/12/16 08:02:56;;;;;;;60.90;48.23;;;4.10;99.90;;;;;;5051683;28;20024;-69
2023/12/16 08:05:22;;;;;;;53.03;47.23;;;4.10;99.90;;;;;;5049768;28;20048;-70
2023/12/16 08:07:50;;;;;;;48.60;41.60;;;4.20;99.90;;;;;;5051660;28;20036;-70
2023/12/16 08:10:16;;;;;;;103.10;52.17;;;4.10;99.90;;;;;;5051292;28;20060;-70
2023/12/16 08:12:42;;;;;;;57.53;50.77;;;4.10;99.90;;;;;;5051722;28;20088;-69
2023/12/16 08:15:08;;;;;;;56.40;46.90;;;4.10;99.90;;;;;;5050535;28;20366;-69
2023/12/16 08:17:36;;;;;;;50.60;45.33;;;4.10;99.90;;;;;;5050541;28;20477;-70
2023/12/16 08:20:02;;;;;;;68.97;62.57;;;4.10;99.90;;;;;;5039277;28;20045;-70
2023/12/16 08:22:28;;;;;;;74.63;67.10;;;4.10;99.90;;;;;;5038263;28;20036;-70
2023/12/16 08:24:54;;;;;;;61.63;55.03;;;4.10;99.90;;;;;;5049741;28;20029;-70
2023/12/16 08:27:20;;;;;;;61.33;54.20;;;4.10;99.90;;;;;;5042128;28;20055;-70
2023/12/16 08:29:46;;;;;;;61.77;55.00;;;4.10;99.90;;;;;;5036466;28;20462;-69
2023/12/16 08:32:12;;;;;;;67.97;60.67;;;4.10;99.90;;;;;;5035841;28;20029;-70
2023/12/16 08:34:38;;;;;;;59.63;54.20;;;4.20;99.90;;;;;;5035636;28;20477;-69
2023/12/16 08:37:04;;;;;;;56.17;51.20;;;4.20;99.90;;;;;;5053087;28;20025;-70
2023/12/16 08:39:30;;;;;;;71.93;65.63;;;4.30;99.90;;;;;;5053631;28;20029;-70
2023/12/16 08:41:56;;;;;;;77.47;70.63;;;4.20;99.90;;;;;;5037791;28;20034;-70
2023/12/16 08:44:22;;;;;;;84.10;74.90;;;4.20;99.90;;;;;;5035104;28;20029;-69
2023/12/16 08:46:49;;;;;;;155.13;72.33;;;4.30;99.90;;;;;;5033833;28;20394;-69
2023/12/16 08:49:15;;;;;;;77.23;50.47;;;4.30;99.90;;;;;;5037608;28;20048;-69
2023/12/16 08:51:41;;;;;;;111.93;49.93;;;4.40;99.90;;;;;;5047394;28;20400;-69
2023/12/16 08:54:07;;;;;;;96.80;56.57;;;4.40;99.90;;;;;;5047525;28;20025;-70
2023/12/16 08:56:33;;;;;;;113.73;56.60;;;4.50;99.90;;;;;;5049668;28;20045;-69
2023/12/16 08:58:59;;;;;;;328.47;91.47;;;4.60;99.90;;;;;;5043150;28;20029;-70
2023/12/16 09:01:25;;;;;;;287.37;95.73;;;4.60;99.90;;;;;;5052730;28;20377;-69
2023/12/16 09:03:51;;;;;;;251.97;109.47;;;4.50;99.90;;;;;;5054166;28;20040;-69
2023/12/16 09:06:17;;;;;;;215.53;85.30;;;4.50;99.90;;;;;;5037983;28;20481;-70
2023/12/16 09:08:43;;;;;;;223.03;73.33;;;4.60;99.90;;;;;;5042054;28;20037;-69
2023/12/16 09:11:09;;;;;;;221.40;69.27;;;4.50;99.90;;;;;;5045661;28;20091;-69
2023/12/16 09:13:36;;;;;;;211.93;68.00;;;4.60;99.90;;;;;;5053912;28;20044;-69
2023/12/16 09:16:02;;;;;;;502.60;82.20;;;4.60;99.90;;;;;;5053030;28;20055;-69
2023/12/16 09:18:29;;;;;;;288.53;112.23;;;4.70;99.90;;;;;;5053368;28;20037;-69
2023/12/16 09:20:55;;;;;;;211.43;95.60;;;4.80;99.90;;;;;;5047823;28;20044;-69
2023/12/16 09:23:21;;;;;;;138.13;83.27;;;4.80;99.90;;;;;;5035097;28;20478;-69
2023/12/16 09:25:47;;;;;;;90.97;66.23;;;4.80;99.90;;;;;;5053721;28;20041;-69
2023/12/16 09:28:13;;;;;;;83.47;74.63;;;4.80;99.90;;;;;;5052569;28;20041;-69
2023/12/16 09:30:39;;;;;;;331.57;90.33;;;4.90;99.90;;;;;;5052684;28;20041;-70
2023/12/16 09:33:05;;;;;;;106.37;94.97;;;5.00;99.90;;;;;;5051848;28;20496;-69
2023/12/16 09:35:32;;;;;;;110.17;98.70;;;5.00;99.90;;;;;;5053497;28;20033;-69
2023/12/16 09:37:58;;;;;;;94.80;84.87;;;5.00;99.90;;;;;;5052616;28;20048;-69
2023/12/16 09:40:24;;;;;;;75.73;68.40;;;5.10;99.90;;;;;;5051441;28;20029;-70
2023/12/16 09:42:53;;;;;;;68.97;61.63;;;5.10;99.90;;;;;;5052951;28;20021;-69
2023/12/16 09:45:19;;;;;;;67.57;61.00;;;5.20;99.90;;;;;;5046215;28;20033;-70
2023/12/16 09:47:45;;;;;;;62.83;56.30;;;5.30;99.90;;;;;;5032840;28;20049;-69
2023/12/16 09:50:11;;;;;;;60.17;53.47;;;5.30;99.90;;;;;;5046634;28;20033;-70
2023/12/16 09:52:39;;;;;;;58.47;52.17;;;5.30;99.90;;;;;;5043730;28;20036;-69
2023/12/16 09:55:05;;;;;;;68.93;59.57;;;5.20;99.90;;;;;;5052903;28;20036;-70
2023/12/16 09:57:34;;;;;;;61.87;55.83;;;5.30;99.90;;;;;;5037548;28;20032;-69
2023/12/16 10:00:00;;;;;;;63.07;56.67;;;5.20;99.90;;;;;;5035262;28;20048;-69
2023/12/16 10:02:27;;;;;;;63.13;56.83;;;5.20;99.90;;;;;;5042772;28;20036;-69
2023/12/16 10:04:57;;;;;;;58.43;49.50;;;5.20;99.90;;;;;;5051355;28;20051;-71
2023/12/16 10:07:27;;;;;;;61.57;54.70;;;5.30;99.90;;;;;;5051658;28;20025;-69
2023/12/16 10:09:53;;;;;;;52.57;47.03;;;5.60;99.90;;;;;;5052978;28;20033;-70
2023/12/16 10:12:19;;;;;;;62.30;55.33;;;5.80;99.90;;;;;;5042833;28;20033;-69
2023/12/16 10:14:49;;;;;;;66.13;59.57;;;5.80;99.90;;;;;;5030972;28;20029;-70
2023/12/16 10:17:19;;;;;;;63.25;57.17;;;6.00;99.90;;;;;;5032610;28;20041;-69
2023/12/16 10:19:45;;;;;;;56.90;51.43;;;6.10;99.90;;;;;;5032562;28;20046;-70
2023/12/16 10:22:14;;;;;;;58.60;52.63;;;6.10;99.90;;;;;;5038438;28;20032;-70
2023/12/16 10:24:41;;;;;;;59.67;53.73;;;6.20;99.90;;;;;;5052688;28;20135;-70
2023/12/16 10:27:07;;;;;;;52.93;47.47;;;6.20;99.90;;;;;;5041900;28;20044;-70
2023/12/16 10:29:33;;;;;;;52.00;47.03;;;6.10;99.90;;;;;;5032403;28;20049;-69
2023/12/16 10:32:00;;;;;;;74.17;67.70;;;6.20;99.90;;;;;;5036198;28;20033;-70
2023/12/16 10:34:29;;;;;;;50.23;45.13;;;6.20;99.90;;;;;;5033563;28;20449;-70
2023/12/16 10:37:05;;;;;;;43.47;38.80;;;6.20;99.90;;;;;;5032559;28;20036;-70
2023/12/16 10:39:32;;;;;;;43.03;38.13;;;6.20;99.90;;;;;;5032468;28;20037;-70
2023/12/16 10:41:58;;;;;;;69.63;63.73;;;6.20;99.90;;;;;;5038767;28;20025;-70
2023/12/16 10:44:24;;;;;;;40.93;36.57;;;6.20;99.90;;;;;;5052004;28;20036;-69
2023/12/16 10:46:52;;;;;;;43.83;39.67;;;6.20;99.90;;;;;;5034963;28;20034;-69
2023/12/16 10:49:18;;;;;;;47.03;42.70;;;6.50;99.90;;;;;;5031926;28;20038;-69
2023/12/16 10:51:44;;;;;;;49.10;44.85;;;6.50;99.90;;;;;;5042468;28;20508;-69
2023/12/16 10:54:39;;;;;;;58.43;53.60;;;6.50;99.90;;;;;;5042633;28;20112;-69
2023/12/16 10:57:12;;;;;;;46.17;41.95;;;6.50;99.90;;;;;;5048298;28;20048;-69
2023/12/16 10:59:43;;;;;;;53.00;48.70;;;6.60;99.90;;;;;;5048555;28;20041;-69
2023/12/16 11:02:23;;;;;;;76.63;71.45;;;6.70;99.90;;;;;;5047764;28;20029;-69
2023/12/16 11:05:06;;;;;;;76.60;71.53;;;6.70;99.90;;;;;;5050362;28;20036;-69
2023/12/16 11:07:33;;;;;;;54.72;50.08;;;6.70;99.90;;;;;;5051936;28;20147;-69
2023/12/16 11:09:59;;;;;;;66.35;61.67;;;6.80;99.90;;;;;;5051007;28;20400;-69
2023/12/16 11:12:25;;;;;;;50.17;46.33;;;6.90;99.90;;;;;;5032402;28;20049;-69
2023/12/16 11:14:54;;;;;;;45.63;41.95;;;7.00;99.90;;;;;;5032276;28;20041;-69
2023/12/16 11:17:33;;;;;;;113.97;107.35;;;7.10;99.90;;;;;;5030103;28;20038;-69
2023/12/16 11:20:06;;;;;;;120.50;113.77;;;7.10;99.90;;;;;;5034451;28;20586;-69
2023/12/16 11:22:32;;;;;;;130.88;123.05;;;7.10;99.90;;;;;;5031712;28;20040;-70
2023/12/16 11:25:00;;;;;;;173.00;163.40;;;7.10;99.90;;;;;;5032347;28;20497;-69
2023/12/16 11:27:29;;;;;;;154.60;145.80;;;7.20;99.90;;;;;;5044999;28;20041;-69
2023/12/16 11:29:56;;;;;;;55.22;51.22;;;7.20;99.90;;;;;;5051761;28;20033;-69
2023/12/16 11:32:22;;;;;;;86.83;81.00;;;7.20;99.90;;;;;;5051048;28;20033;-69
2023/12/16 11:34:52;;;;;;;61.42;57.35;;;7.30;99.90;;;;;;5051341;28;20489;-70
2023/12/16 11:37:36;;;;;;;160.05;150.75;;;7.40;99.90;;;;;;5050975;28;20060;-69
2023/12/16 11:40:04;;;;;;;42.60;39.25;;;7.40;99.90;;;;;;5046118;28;20823;-70
2023/12/16 11:42:46;;;;;;;121.25;113.50;;;7.60;99.90;;;;;;5032422;28;20124;-70
2023/12/16 11:45:45;;;;;;;150.13;140.57;;;7.80;99.90;;;;;;5038110;28;20045;-69
2023/12/16 11:48:13;;;;;;;185.10;174.57;;;7.90;99.90;;;;;;5034370;28;20064;-70
2023/12/16 11:50:41;;;;;;;165.80;156.00;;;8.00;99.90;;;;;;5050265;28;20048;-69
2023/12/16 11:53:11;;;;;;;165.05;155.50;;;8.00;99.90;;;;;;5048882;28;20044;-69
2023/12/16 11:55:37;;;;;;;127.47;119.80;;;8.00;99.90;;;;;;5053443;28;20024;-70
2023/12/16 11:58:04;;;;;;;207.52;195.73;;;8.10;99.90;;;;;;5055134;28;20029;-69
2023/12/16 12:00:30;;;;;;;175.32;165.05;;;8.20;99.90;;;;;;5051275;28;20389;-70
2023/12/16 12:02:59;;;;;;;132.88;124.95;;;8.40;99.90;;;;;;5048932;28;20069;-69
2023/12/16 12:05:26;;;;;;;168.57;158.60;;;8.60;99.90;;;;;;5050336;28;20045;-67
2023/12/16 12:07:52;;;;;;;121.65;114.70;;;8.70;99.90;;;;;;5035093;28;20033;-67
2023/12/16 12:10:18;;;;;;;120.68;113.05;;;8.70;99.90;;;;;;5034551;28;20041;-67
2023/12/16 12:12:44;;;;;;;126.75;119.35;;;8.60;99.90;;;;;;5033307;28;20029;-67
2023/12/16 12:15:10;;;;;;;141.35;132.15;;;8.60;99.90;;;;;;5034224;28;20044;-67
2023/12/16 12:17:36;;;;;;;65.22;60.55;;;8.80;99.90;;;;;;5035670;28;20037;-67
2023/12/16 12:20:04;;;;;;;89.15;83.57;;;8.80;99.90;;;;;;5044916;28;20053;-70
2023/12/16 12:22:30;;;;;;;87.45;81.53;;;9.00;99.90;;;;;;5035198;28;20080;-67
2023/12/16 12:24:57;;;;;;;114.78;107.78;;;9.20;99.90;;;;;;5035004;28;20029;-69
2023/12/16 12:27:23;;;;;;;108.45;101.80;;;9.20;99.90;;;;;;5044494;28;20021;-67
2023/12/16 12:29:56;;;;;;;105.65;99.28;;;9.10;99.90;;;;;;5040785;28;20080;-67
2023/12/16 12:32:23;;;;;;;116.22;109.25;;;9.00;99.90;;;;;;5051945;28;20041;-67